Time;durP1;ratioP1;P1;durP2;ratioP2;P2;SDS_P1;SDS_P2;PMS_P1;PMS_P2;Temp;Humidity;BMP_temperature;BMP_pressure;BME280_temperature;BME280_humidity;BME280_pressure;Samples;Min_cycle;Max_cycle;Signal;HPM_P1;HPM_P2
2021/09/23 00:00:42;;;;;;;18.70;10.38;;;;;;;9.93;91.41;101257.97;20786596;28;20044;-86
2021/09/23 00:10:45;;;;;;;19.35;11.63;;;;;;;10.00;91.28;101245.75;20728869;28;20554;-86
2021/09/23 00:20:48;;;;;;;19.73;10.80;;;;;;;9.92;91.67;101244.91;20741170;28;20042;-85
2021/09/23 00:30:50;;;;;;;20.17;11.48;;;;;;;9.98;90.40;101234.41;20754981;28;20074;-85
2021/09/23 00:40:53;;;;;;;15.38;8.88;;;;;;;9.75;90.53;101232.66;20745247;28;20052;-85
2021/09/23 00:50:56;;;;;;;18.95;10.20;;;;;;;9.69;91.43;101231.78;20768905;28;20129;-85
2021/09/23 01:00:59;;;;;;;21.67;12.27;;;;;;;9.89;90.92;101230.06;20730260;28;20124;-84
2021/09/23 01:11:01;;;;;;;18.20;11.10;;;;;;;9.82;91.49;101223.09;20736210;28;20053;-85
2021/09/23 01:21:08;;;;;;;18.65;12.02;;;;;;;9.66;90.78;101214.34;20742676;28;20117;-86
2021/09/23 01:31:10;;;;;;;18.58;11.35;;;;;;;9.64;91.94;101210.00;20738800;28;20047;-85
2021/09/23 01:41:12;;;;;;;19.60;12.43;;;;;;;9.66;91.53;101205.63;20734989;28;20050;-85
2021/09/23 01:51:16;;;;;;;22.77;11.82;;;;;;;9.49;91.90;101193.41;20736262;28;20073;-86
2021/09/23 02:01:18;;;;;;;20.27;12.90;;;;;;;9.47;92.67;101184.69;20732853;28;20104;-85
2021/09/23 02:11:21;;;;;;;18.10;11.57;;;;;;;9.41;92.67;101168.13;20759118;28;20062;-85
2021/09/23 02:21:23;;;;;;;20.90;12.10;;;;;;;9.37;91.80;101169.00;20782224;28;20048;-83
2021/09/23 02:31:25;;;;;;;19.63;10.90;;;;;;;9.19;91.87;101156.75;20771091;28;20073;-84
2021/09/23 02:41:30;;;;;;;20.95;12.25;;;;;;;9.19;92.95;101138.47;20743728;28;20053;-85
2021/09/23 02:51:32;;;;;;;14.55;9.13;;;;;;;8.90;92.22;101126.22;20749821;28;20060;-85
2021/09/23 03:01:34;;;;;;;18.58;10.23;;;;;;;8.75;91.30;101115.72;20772369;28;20101;-85
2021/09/23 03:11:36;;;;;;;16.25;9.95;;;;;;;8.63;91.83;101100.91;20756298;28;20042;-85
2021/09/23 03:21:38;;;;;;;18.80;10.45;;;;;;;8.52;92.66;101097.38;20751295;28;20049;-84
2021/09/23 03:31:40;;;;;;;15.15;9.98;;;;;;;8.43;92.49;101098.22;20756321;28;20045;-85
2021/09/23 03:41:43;;;;;;;20.58;11.32;;;;;;;8.46;92.85;101077.34;20759416;28;20124;-85
2021/09/23 03:51:47;;;;;;;16.83;10.53;;;;;;;8.36;92.21;101083.41;20735368;28;20056;-85
2021/09/23 04:01:49;;;;;;;19.73;11.02;;;;;;;8.38;92.78;101052.06;20740902;28;20053;-85
2021/09/23 04:11:52;;;;;;;17.73;11.00;;;;;;;8.33;92.81;101045.94;20742184;28;20060;-85
2021/09/23 04:21:54;;;;;;;15.93;9.65;;;;;;;8.18;92.45;101039.78;20734979;28;20048;-85
2021/09/23 04:31:56;;;;;;;14.13;8.85;;;;;;;8.08;91.54;101044.97;20760218;28;20512;-85
2021/09/23 04:41:59;;;;;;;18.10;9.60;;;;;;;7.75;91.50;101036.09;20747208;28;20073;-85
2021/09/23 04:52:01;;;;;;;15.48;9.52;;;;;;;7.78;91.23;101030.91;20770609;28;20077;-84
2021/09/23 05:02:03;;;;;;;12.00;7.60;;;;;;;7.70;90.44;101003.91;20738301;28;20129;-85
2021/09/23 05:12:05;;;;;;;14.60;8.85;;;;;;;7.71;90.34;100985.72;20741215;28;20045;-85
2021/09/23 05:22:07;;;;;;;16.48;9.77;;;;;;;7.77;89.16;100986.59;20745329;28;20072;-85
2021/09/23 05:32:09;;;;;;;15.23;9.35;;;;;;;7.65;90.07;100970.00;20739416;28;20041;-85
2021/09/23 05:42:11;;;;;;;18.08;9.15;;;;;;;7.68;89.83;100977.00;20754309;28;20053;-85
2021/09/23 05:52:16;;;;;;;16.80;8.95;;;;;;;7.67;90.38;100991.75;20781520;28;20148;-85
2021/09/23 06:02:19;;;;;;;16.20;9.85;;;;;;;7.85;90.21;100996.16;20741696;28;20069;-84
2021/09/23 06:12:23;;;;;;;14.63;8.45;;;;;;;7.95;90.38;101034.50;20614096;23;20109;-71
2021/09/23 06:22:26;;;;;;;16.98;9.93;;;;;;;8.28;91.13;101012.00;20622145;23;20093;-67
2021/09/23 06:32:27;;;;;;;21.95;13.00;;;;;;;8.66;91.27;101004.31;20643324;28;20407;-67
2021/09/23 06:42:29;;;;;;;17.92;12.00;;;;;;;8.98;89.91;101004.34;20577103;28;20130;-67
2021/09/23 06:52:31;;;;;;;21.50;11.90;;;;;;;9.27;90.23;100998.25;20580330;28;20062;-67
2021/09/23 07:02:33;;;;;;;17.92;11.15;;;;;;;9.54;89.92;101001.72;20591267;28;20125;-67
2021/09/23 07:12:35;;;;;;;18.10;12.45;;;;;;;9.81;90.26;101019.94;20663006;28;20097;-67
2021/09/23 07:22:37;;;;;;;24.30;15.38;;;;;;;10.08;89.68;101005.03;20658790;28;20431;-67
2021/09/23 07:32:39;;;;;;;17.70;12.25;;;;;;;10.32;88.41;101004.09;20656971;28;20065;-67
2021/09/23 07:42:41;;;;;;;23.67;12.90;;;;;;;10.58;88.82;101030.97;20606821;28;20047;-67
2021/09/23 07:52:43;;;;;;;18.23;11.90;;;;;;;10.87;88.47;101020.31;20580210;28;20129;-68
2021/09/23 08:02:45;;;;;;;21.88;13.65;;;;;;;11.43;85.78;101024.25;20593805;28;20046;-68
2021/09/23 08:12:47;;;;;;;21.35;12.98;;;;;;;11.52;86.17;101020.66;20657258;28;20502;-67
2021/09/23 08:22:49;;;;;;;23.17;14.00;;;;;;;11.90;87.12;101004.56;20656218;28;20043;-68
2021/09/23 08:32:51;;;;;;;20.27;11.00;;;;;;;12.37;84.45;100987.34;20655683;28;20057;-68
2021/09/23 08:42:53;;;;;;;20.15;12.93;;;;;;;12.83;84.33;100998.03;20655509;28;20050;-67
2021/09/23 08:52:55;;;;;;;21.15;12.63;;;;;;;13.23;81.86;100991.31;20655069;28;20046;-68
2021/09/23 09:03:06;;;;;;;18.13;9.63;;;;;;;13.77;80.63;100978.03;20653548;28;20054;-68
2021/09/23 09:13:09;;;;;;;17.25;9.60;;;;;;;14.09;80.14;100967.72;20653731;28;20050;-67
2021/09/23 09:23:13;;;;;;;17.55;10.15;;;;;;;14.62;78.78;100934.06;20667924;28;20057;-68
2021/09/23 09:33:15;;;;;;;11.97;7.70;;;;;;;15.22;76.71;100923.78;20667571;28;20532;-68
2021/09/23 09:43:17;;;;;;;11.93;6.30;;;;;;;15.74;72.86;100925.03;20669152;28;20086;-68
2021/09/23 09:53:18;;;;;;;9.60;5.15;;;;;;;16.04;68.57;100907.41;20594600;28;20058;-68
2021/09/23 10:03:20;;;;;;;8.05;4.40;;;;;;;16.35;66.83;100897.63;20609014;28;20051;-68
2021/09/23 10:13:24;;;;;;;10.20;5.15;;;;;;;16.74;68.11;100896.44;20667403;28;20391;-68
2021/09/23 10:23:29;;;;;;;6.45;3.33;;;;;;;16.90;63.75;100881.75;20666096;28;20042;-68
2021/09/23 10:33:30;;;;;;;6.90;3.33;;;;;;;17.22;61.80;100869.19;20663392;28;20038;-67
2021/09/23 10:43:33;;;;;;;6.15;3.42;;;;;;;17.51;59.80;100869.00;20664126;28;20567;-67
2021/09/23 10:53:36;;;;;;;7.43;3.75;;;;;;;17.50;61.01;100877.88;20663110;28;20046;-67
2021/09/23 11:03:39;;;;;;;7.60;3.37;;;;;;;17.86;59.48;100853.59;20662791;28;20408;-67
2021/09/23 11:13:42;;;;;;;7.55;3.78;;;;;;;18.32;58.60;100831.44;20664598;28;20050;-68
2021/09/23 11:23:44;;;;;;;6.32;3.15;;;;;;;18.43;57.24;100823.91;20661492;28;20133;-68
2021/09/23 11:33:51;;;;;;;6.90;3.40;;;;;;;18.79;56.98;100798.59;20659889;28;20054;-68
2021/09/23 11:43:52;;;;;;;6.07;3.45;;;;;;;18.91;57.54;100771.50;20657865;28;20129;-68
2021/09/23 11:53:54;;;;;;;7.93;3.22;;;;;;;19.09;55.83;100757.41;20658990;28;20053;-68
2021/09/23 12:03:56;;;;;;;6.55;3.38;;;;;;;19.13;56.95;100756.34;20655351;28;20579;-68
2021/09/23 12:13:58;;;;;;;7.10;3.45;;;;;;;19.50;55.72;100741.38;20655304;28;20476;-68
2021/09/23 12:24:01;;;;;;;6.85;3.95;;;;;;;19.57;55.94;100726.84;20651411;28;20492;-68
2021/09/23 12:34:21;;;;;;;6.60;3.63;;;;;;;19.56;55.11;100722.47;20650746;28;20041;-68
2021/09/23 12:44:27;;;;;;;5.65;3.20;;;;;;;19.95;54.04;100719.69;20586730;28;20047;-69
2021/09/23 12:54:28;;;;;;;6.82;3.55;;;;;;;19.98;54.91;100713.38;20578277;28;20440;-68
2021/09/23 13:04:30;;;;;;;5.68;3.80;;;;;;;19.97;55.92;100706.31;20649029;28;20039;-69
2021/09/23 13:14:32;;;;;;;4.95;3.00;;;;;;;20.04;55.56;100680.31;20652925;28;20053;-68
2021/09/23 13:24:34;;;;;;;7.38;3.63;;;;;;;20.18;55.78;100657.41;20652459;28;20066;-68
2021/09/23 13:34:36;;;;;;;8.90;3.50;;;;;;;20.54;54.62;100648.47;20650168;28;20046;-68
2021/09/23 13:44:38;;;;;;;6.57;3.17;;;;;;;20.87;52.16;100639.63;20653558;28;20408;-68
2021/09/23 13:54:42;;;;;;;5.70;3.17;;;;;;;20.73;52.20;100633.22;20652774;28;20043;-68
2021/09/23 14:04:44;;;;;;;6.77;3.40;;;;;;;20.95;52.17;100630.28;20658023;28;20077;-68
2021/09/23 14:14:45;;;;;;;4.78;2.75;;;;;;;20.81;51.48;100618.66;20669389;28;20316;-68
2021/09/23 14:24:47;;;;;;;5.55;2.78;;;;;;;20.85;51.33;100604.25;20680871;23;20407;-73
2021/09/23 14:34:49;;;;;;;4.60;2.60;;;;;;;20.91;50.61;100590.59;20666248;28;20046;-71
2021/09/23 14:44:51;;;;;;;5.80;2.95;;;;;;;20.87;50.88;100586.38;20665207;28;20054;-71
2021/09/23 14:54:52;;;;;;;4.93;3.22;;;;;;;20.92;51.88;100571.00;20663855;28;20415;-72
2021/09/23 15:04:54;;;;;;;5.45;3.15;;;;;;;21.00;50.96;100560.81;20663629;28;20041;-71
2021/09/23 15:14:55;;;;;;;6.03;3.28;;;;;;;20.85;50.41;100545.69;20643732;28;20404;-71
2021/09/23 15:24:57;;;;;;;5.25;2.72;;;;;;;20.74;49.04;100548.94;20661096;28;20053;-71
2021/09/23 15:34:59;;;;;;;4.85;2.80;;;;;;;20.64;49.44;100559.22;20660003;28;20046;-71
2021/09/23 15:45:02;;;;;;;5.40;2.42;;;;;;;20.60;49.87;100557.72;20661287;28;20693;-71
2021/09/23 15:55:04;;;;;;;6.90;3.10;;;;;;;20.48;51.06;100547.72;20660281;28;20073;-71
2021/09/23 16:05:08;;;;;;;5.20;2.75;;;;;;;20.28;52.44;100547.91;20654544;28;20257;-71
2021/09/23 16:15:11;;;;;;;6.63;2.70;;;;;;;20.08;52.85;100539.19;20668667;28;20048;-73
2021/09/23 16:25:13;;;;;;;5.35;2.47;;;;;;;19.91;54.21;100547.19;20639724;28;20038;-72
2021/09/23 16:35:15;;;;;;;9.20;4.85;;;;;;;19.80;54.79;100546.91;20656436;28;20046;-72
2021/09/23 16:45:17;;;;;;;5.20;2.90;;;;;;;19.59;55.59;100539.03;20655883;28;20105;-72
2021/09/23 16:55:19;;;;;;;5.82;2.90;;;;;;;19.30;57.01;100540.50;20628227;28;20508;-72
2021/09/23 17:05:20;;;;;;;10.27;3.28;;;;;;;18.98;58.15;100560.66;20653301;28;20050;-71
2021/09/23 17:15:22;;;;;;;6.15;2.78;;;;;;;18.83;59.06;100566.69;20653802;28;20485;-72
2021/09/23 17:25:24;;;;;;;6.30;3.80;;;;;;;18.32;61.27;100557.53;20654490;28;20503;-72
2021/09/23 17:35:26;;;;;;;5.97;3.33;;;;;;;17.99;62.83;100554.59;20652802;28;20038;-71
2021/09/23 17:45:28;;;;;;;6.35;3.50;;;;;;;17.74;64.11;100568.91;20668346;28;20042;-72
2021/09/23 17:55:29;;;;;;;6.50;2.90;;;;;;;17.42;65.39;100578.16;20652950;28;20049;-74
2021/09/23 18:05:33;;;;;;;8.07;3.53;;;;;;;17.25;66.01;100585.91;20647051;28;20043;-74
2021/09/23 18:15:38;;;;;;;7.00;3.17;;;;;;;16.90;67.14;100577.59;20638892;28;20149;-74
2021/09/23 18:25:40;;;;;;;7.53;3.60;;;;;;;16.83;67.56;100584.06;20649771;28;20042;-73
2021/09/23 18:35:42;;;;;;;7.80;3.50;;;;;;;16.73;67.71;100574.75;20631810;28;20042;-73
2021/09/23 18:45:45;;;;;;;5.07;3.17;;;;;;;16.71;67.44;100565.97;20634402;28;20042;-73
2021/09/23 18:55:48;;;;;;;6.05;3.60;;;;;;;16.95;66.29;100578.28;20651340;28;20043;-74
2021/09/23 19:05:50;;;;;;;8.25;3.40;;;;;;;17.01;66.25;100595.69;20649267;28;20251;-74
2021/09/23 19:15:51;;;;;;;5.47;3.45;;;;;;;17.11;65.92;100600.56;20648458;28;20053;-75
2021/09/23 19:25:54;;;;;;;6.45;3.60;;;;;;;16.93;66.34;100606.56;20644897;28;20492;-74
2021/09/23 19:35:55;;;;;;;7.68;3.40;;;;;;;16.90;66.04;100602.25;20642930;28;20057;-73
2021/09/23 19:45:57;;;;;;;8.32;3.17;;;;;;;16.85;66.02;100619.22;20646022;28;20081;-73
2021/09/23 19:55:59;;;;;;;5.45;3.20;;;;;;;16.66;66.13;100641.03;20642097;28;20038;-73
2021/09/23 20:06:01;;;;;;;7.10;3.22;;;;;;;16.52;66.89;100656.53;20643536;28;20050;-74
2021/09/23 20:16:03;;;;;;;6.20;3.45;;;;;;;16.42;66.57;100641.94;20631386;28;20046;-73
2021/09/23 20:26:06;;;;;;;6.60;3.70;;;;;;;16.36;67.01;100644.78;20625079;28;20502;-73
2021/09/23 20:36:08;;;;;;;6.97;3.20;;;;;;;16.06;68.00;100647.59;20648516;28;20408;-75
2021/09/23 20:46:09;;;;;;;6.55;3.70;;;;;;;15.81;69.51;100646.69;20652999;28;20100;-74
2021/09/23 20:56:13;;;;;;;7.78;3.80;;;;;;;15.70;69.46;100652.31;20649113;28;20049;-74
2021/09/23 21:06:15;;;;;;;6.30;3.90;;;;;;;15.56;69.76;100652.75;20650201;28;20054;-74
2021/09/23 21:16:18;;;;;;;9.38;3.95;;;;;;;15.43;70.40;100669.91;20656135;28;20050;-74
2021/09/23 21:26:25;;;;;;;7.35;4.00;;;;;;;15.17;72.01;100686.50;20667992;28;20062;-74
2021/09/23 21:36:27;;;;;;;8.10;4.13;;;;;;;14.92;73.22;100698.69;20668982;28;20043;-74
2021/09/23 21:46:29;;;;;;;8.68;4.75;;;;;;;14.83;73.29;100679.59;20669141;28;20050;-75
2021/09/23 21:56:31;;;;;;;7.05;4.28;;;;;;;14.48;74.63;100696.41;20667945;28;20049;-74
2021/09/23 22:06:33;;;;;;;7.25;4.35;;;;;;;14.14;76.60;100706.94;20664554;28;20042;-74
2021/09/23 22:16:35;;;;;;;10.35;4.63;;;;;;;13.87;77.39;100726.88;20655546;28;20049;-75
2021/09/23 22:26:37;;;;;;;7.38;4.80;;;;;;;13.69;79.07;100736.06;20658984;28;20086;-74
2021/09/23 22:36:39;;;;;;;8.32;4.85;;;;;;;13.53;79.89;100740.84;20653728;28;20062;-75
2021/09/23 22:46:41;;;;;;;7.75;5.10;;;;;;;13.36;80.31;100729.81;20646868;28;20518;-75
2021/09/23 22:56:43;;;;;;;8.88;5.28;;;;;;;13.19;81.30;100721.41;20657128;28;20566;-75
2021/09/23 23:06:45;;;;;;;8.80;5.85;;;;;;;13.02;82.13;100732.25;20625023;28;20526;-75
2021/09/23 23:16:48;;;;;;;9.27;6.05;;;;;;;12.91;82.79;100737.72;20635908;28;20042;-75
2021/09/23 23:26:50;;;;;;;11.93;6.07;;;;;;;12.81;83.17;100744.94;20655854;28;20050;-74
2021/09/23 23:36:52;;;;;;;9.38;5.80;;;;;;;12.73;83.20;100743.34;20649343;28;20046;-74
2021/09/23 23:46:54;;;;;;;11.68;5.68;;;;;;;12.59;83.93;100747.09;20636710;28;20042;-74
2021/09/23 23:56:56;;;;;;;10.55;6.47;;;;;;;12.50;84.26;100751.63;20652824;28;20074;-75
